Time;durP1;ratioP1;P1;durP2;ratioP2;P2;SDS_P1;SDS_P2;PMS_P1;PMS_P2;Temp;Humidity;BMP_temperature;BMP_pressure;BME280_temperature;BME280_humidity;BME280_pressure;Samples;Min_cycle;Max_cycle;Signal;HPM_P1;HPM_P2
2023/05/15 00:00:05;;;;;;;5.07;4.15;;;;;;;;;;4928923;28;20515;-68
2023/05/15 00:02:32;;;;;;;6.50;4.45;;;;;;;;;;4922481;28;20677;-68
2023/05/15 00:04:57;;;;;;;5.20;4.10;;;;;;;;;;4927900;28;20043;-68
2023/05/15 00:07:23;;;;;;;5.63;4.30;;;;;;;;;;4941245;28;20122;-68
2023/05/15 00:09:48;;;;;;;6.75;4.47;;;;;;;;;;4939161;28;20031;-68
2023/05/15 00:12:14;;;;;;;4.72;3.95;;;;;;;;;;4931716;28;20763;-69
2023/05/15 00:14:39;;;;;;;4.63;3.83;;;;;;;;;;4936748;28;20042;-68
2023/05/15 00:17:05;;;;;;;4.68;4.05;;;;;;;;;;4923391;28;20042;-68
2023/05/15 00:19:30;;;;;;;4.43;3.83;;;;;;;;;;4922299;28;20121;-68
2023/05/15 00:21:56;;;;;;;5.13;3.63;;;;;;;;;;4937257;28;20042;-68
2023/05/15 00:24:21;;;;;;;8.55;3.95;;;;;;;;;;4939228;28;20118;-68
2023/05/15 00:26:46;;;;;;;5.82;4.72;;;;;;;;;;4939514;28;20551;-68
2023/05/15 00:29:12;;;;;;;5.43;4.43;;;;;;;;;;4937103;28;20045;-68
2023/05/15 00:31:37;;;;;;;6.63;5.55;;;;;;;;;;4931156;28;20040;-68
2023/05/15 00:34:02;;;;;;;5.43;4.10;;;;;;;;;;4925967;28;20045;-68
2023/05/15 00:36:28;;;;;;;6.38;3.92;;;;;;;;;;4940377;28;20054;-68
2023/05/15 00:38:53;;;;;;;5.32;4.60;;;;;;;;;;4938921;28;20039;-68
2023/05/15 00:41:21;;;;;;;5.90;4.22;;;;;;;;;;4931750;28;20058;-68
2023/05/15 00:43:49;;;;;;;7.43;4.40;;;;;;;;;;4924852;28;20185;-68
2023/05/15 00:46:15;;;;;;;5.55;4.70;;;;;;;;;;4928650;28;20047;-69
2023/05/15 00:48:42;;;;;;;5.28;4.35;;;;;;;;;;4935173;28;20074;-68
2023/05/15 00:51:08;;;;;;;4.70;4.20;;;;;;;;;;4937269;28;20551;-68
2023/05/15 00:53:34;;;;;;;4.47;3.70;;;;;;;;;;4943930;28;20038;-68
2023/05/15 00:56:01;;;;;;;6.00;3.97;;;;;;;;;;4931043;28;20393;-68
2023/05/15 00:58:28;;;;;;;5.60;3.97;;;;;;;;;;4929810;28;20045;-68
2023/05/15 01:00:54;;;;;;;6.43;4.03;;;;;;;;;;4918397;28;20040;-68
2023/05/15 01:03:20;;;;;;;5.22;4.13;;;;;;;;;;4938039;28;20034;-68
2023/05/15 01:05:45;;;;;;;5.05;4.30;;;;;;;;;;4931122;28;20065;-68
2023/05/15 01:08:25;;;;;;;7.18;4.25;;;;;;;;;;4936829;28;20043;-68
2023/05/15 01:10:51;;;;;;;5.60;4.35;;;;;;;;;;4925857;28;20042;-68
2023/05/15 01:13:20;;;;;;;6.82;4.40;;;;;;;;;;4931867;28;20047;-68
2023/05/15 01:15:46;;;;;;;4.85;4.18;;;;;;;;;;4938623;28;20049;-68
2023/05/15 01:18:11;;;;;;;5.53;4.50;;;;;;;;;;4930909;28;20043;-68
2023/05/15 01:21:04;;;;;;;5.45;4.70;;;;;;;;;;4939586;28;20039;-68
2023/05/15 01:23:58;;;;;;;7.53;4.57;;;;;;;;;;4914537;28;20034;-68
2023/05/15 01:26:45;;;;;;;5.85;4.13;;;;;;;;;;4915179;28;20529;-68
2023/05/15 01:29:18;;;;;;;5.53;4.40;;;;;;;;;;4920696;28;20063;-68
2023/05/15 01:31:55;;;;;;;6.80;4.43;;;;;;;;;;4906747;28;20075;-71
2023/05/15 01:34:28;;;;;;;7.00;4.28;;;;;;;;;;4931942;28;20093;-68
2023/05/15 01:36:58;;;;;;;6.22;4.43;;;;;;;;;;4928938;28;20114;-68
2023/05/15 01:39:27;;;;;;;4.50;3.17;;;;;;;;;;4934819;28;20061;-68
2023/05/15 01:42:09;;;;;;;4.57;3.97;;;;;;;;;;4931325;28;20047;-68
2023/05/15 01:44:43;;;;;;;5.68;4.32;;;;;;;;;;4907202;28;20040;-68
2023/05/15 01:47:13;;;;;;;4.20;3.75;;;;;;;;;;4921515;28;20515;-68
2023/05/15 01:49:40;;;;;;;4.88;4.20;;;;;;;;;;4934617;28;20130;-68
2023/05/15 01:52:24;;;;;;;6.10;4.40;;;;;;;;;;4936025;28;20039;-68
2023/05/15 01:54:50;;;;;;;5.25;3.90;;;;;;;;;;4922112;28;20150;-68
2023/05/15 01:57:17;;;;;;;4.57;4.07;;;;;;;;;;4933269;28;20523;-68
2023/05/15 01:59:44;;;;;;;5.72;4.00;;;;;;;;;;4934664;28;20046;-68
2023/05/15 02:02:09;;;;;;;6.15;4.00;;;;;;;;;;4931799;28;20152;-68
2023/05/15 02:04:37;;;;;;;4.32;3.92;;;;;;;;;;4939141;28;20114;-68
2023/05/15 02:07:03;;;;;;;4.63;3.90;;;;;;;;;;4927384;28;20459;-68
2023/05/15 02:09:30;;;;;;;5.10;3.97;;;;;;;;;;4935402;28;20089;-68
2023/05/15 02:11:56;;;;;;;5.70;4.32;;;;;;;;;;4919738;28;20456;-68
2023/05/15 02:14:25;;;;;;;4.78;3.63;;;;;;;;;;4938999;28;20035;-68
2023/05/15 02:16:50;;;;;;;4.70;3.78;;;;;;;;;;4933033;28;20040;-68
2023/05/15 02:19:15;;;;;;;6.18;4.32;;;;;;;;;;4937772;28;20075;-68
2023/05/15 02:21:41;;;;;;;5.40;4.05;;;;;;;;;;4929699;28;20078;-68
2023/05/15 02:24:06;;;;;;;4.53;3.72;;;;;;;;;;4932489;28;20027;-68
2023/05/15 02:26:40;;;;;;;6.25;4.00;;;;;;;;;;4929154;28;20046;-68
2023/05/15 02:29:37;;;;;;;5.50;4.20;;;;;;;;;;4935937;28;20047;-68
2023/05/15 02:32:18;;;;;;;6.75;4.15;;;;;;;;;;4935571;28;20114;-68
2023/05/15 02:34:53;;;;;;;5.03;4.15;;;;;;;;;;4916199;28;20043;-68
2023/05/15 02:37:26;;;;;;;5.75;4.38;;;;;;;;;;4935348;28;20127;-68
2023/05/15 02:39:53;;;;;;;5.47;4.35;;;;;;;;;;4933764;28;20051;-68
2023/05/15 02:42:20;;;;;;;5.97;4.70;;;;;;;;;;4939125;28;20563;-68
2023/05/15 02:44:47;;;;;;;4.95;3.88;;;;;;;;;;4923799;28;20047;-68
2023/05/15 02:47:13;;;;;;;5.65;3.60;;;;;;;;;;4921072;28;20125;-68
2023/05/15 02:49:38;;;;;;;8.30;4.85;;;;;;;;;;4941778;28;20051;-68
2023/05/15 02:52:04;;;;;;;6.20;4.35;;;;;;;;;;4940124;28;20039;-68
2023/05/15 02:54:29;;;;;;;4.68;4.00;;;;;;;;;;4932345;28;20106;-68
2023/05/15 02:56:55;;;;;;;7.32;4.30;;;;;;;;;;4930218;28;20125;-68
2023/05/15 02:59:21;;;;;;;5.63;4.45;;;;;;;;;;4931238;28;20046;-68
2023/05/15 03:01:46;;;;;;;4.68;4.15;;;;;;;;;;4930456;28;20516;-68
2023/05/15 03:04:15;;;;;;;5.43;4.28;;;;;;;;;;4940303;28;20043;-68
2023/05/15 03:06:40;;;;;;;5.38;4.22;;;;;;;;;;4937414;28;20035;-68
2023/05/15 03:09:05;;;;;;;5.10;4.10;;;;;;;;;;4938803;28;20038;-69
2023/05/15 03:11:31;;;;;;;7.68;4.22;;;;;;;;;;4942389;28;20162;-68
2023/05/15 03:13:58;;;;;;;4.60;3.90;;;;;;;;;;4921461;28;20065;-68
2023/05/15 03:16:24;;;;;;;5.78;4.15;;;;;;;;;;4936045;28;20065;-68
2023/05/15 03:18:49;;;;;;;5.55;4.45;;;;;;;;;;4932292;28;20515;-68
2023/05/15 03:21:16;;;;;;;5.70;4.25;;;;;;;;;;4939805;28;20118;-68
2023/05/15 03:23:41;;;;;;;5.72;4.18;;;;;;;;;;4942209;28;20042;-68
2023/05/15 03:26:07;;;;;;;4.78;3.70;;;;;;;;;;4938406;28;20036;-68
2023/05/15 03:28:32;;;;;;;4.88;4.05;;;;;;;;;;4916320;28;20521;-68
2023/05/15 03:30:57;;;;;;;7.03;4.13;;;;;;;;;;4933511;28;20094;-69
2023/05/15 03:33:23;;;;;;;5.93;4.20;;;;;;;;;;4940383;28;20588;-68
2023/05/15 03:35:50;;;;;;;5.10;4.35;;;;;;;;;;4939985;28;20350;-68
2023/05/15 03:38:15;;;;;;;5.43;3.78;;;;;;;;;;4939089;28;20853;-68
2023/05/15 03:40:40;;;;;;;5.32;4.30;;;;;;;;;;4925552;28;20097;-68
2023/05/15 03:43:06;;;;;;;5.97;4.00;;;;;;;;;;4926754;28;20420;-68
2023/05/15 03:45:33;;;;;;;6.07;3.92;;;;;;;;;;4936384;28;20738;-68
2023/05/15 03:47:59;;;;;;;5.13;3.72;;;;;;;;;;4934683;28;20039;-68
2023/05/15 03:50:24;;;;;;;4.88;3.72;;;;;;;;;;4933355;28;20108;-68
2023/05/15 03:52:50;;;;;;;4.82;3.80;;;;;;;;;;4929035;28;20045;-68
2023/05/15 03:55:15;;;;;;;4.35;3.88;;;;;;;;;;4927804;28;20040;-68
2023/05/15 03:57:41;;;;;;;4.25;3.72;;;;;;;;;;4928529;28;20074;-68
2023/05/15 04:00:09;;;;;;;5.07;4.25;;;;;;;;;;4935765;28;20031;-68
2023/05/15 04:02:35;;;;;;;6.75;3.97;;;;;;;;;;4923886;28;20094;-68
2023/05/15 04:05:02;;;;;;;5.13;4.10;;;;;;;;;;4936142;28;20287;-69
2023/05/15 04:07:27;;;;;;;4.40;3.85;;;;;;;;;;4939199;28;20066;-68
2023/05/15 04:09:53;;;;;;;5.43;4.18;;;;;;;;;;4917777;28;20069;-68
2023/05/15 04:12:18;;;;;;;5.15;3.58;;;;;;;;;;4936074;28;20046;-68
2023/05/15 04:14:44;;;;;;;7.00;4.15;;;;;;;;;;4933161;28;20109;-68
2023/05/15 04:17:09;;;;;;;4.95;4.10;;;;;;;;;;4929570;28;20046;-68
2023/05/15 04:19:35;;;;;;;6.35;3.92;;;;;;;;;;4935871;28;20831;-68
2023/05/15 04:22:00;;;;;;;5.13;4.20;;;;;;;;;;4932977;28;20047;-68
2023/05/15 04:24:26;;;;;;;5.82;4.40;;;;;;;;;;4910274;28;20043;-68
2023/05/15 04:26:51;;;;;;;6.22;4.25;;;;;;;;;;4936799;28;20038;-68
2023/05/15 04:29:16;;;;;;;5.78;4.22;;;;;;;;;;4930311;28;20063;-68
2023/05/15 04:31:42;;;;;;;5.38;4.30;;;;;;;;;;4933979;28;20047;-68
2023/05/15 04:34:07;;;;;;;5.07;4.32;;;;;;;;;;4935053;28;20524;-71
2023/05/15 04:36:33;;;;;;;8.00;4.00;;;;;;;;;;4933861;28;20482;-70
2023/05/15 04:38:58;;;;;;;7.40;4.22;;;;;;;;;;4917556;28;20076;-70
2023/05/15 04:41:23;;;;;;;4.97;3.90;;;;;;;;;;4938471;28;20047;-70
2023/05/15 04:43:49;;;;;;;7.82;5.45;;;;;;;;;;4938827;28;20118;-71
2023/05/15 04:46:15;;;;;;;6.95;4.18;;;;;;;;;;4930976;28;20085;-70
2023/05/15 04:48:40;;;;;;;7.70;5.22;;;;;;;;;;4929537;28;20050;-70
2023/05/15 04:51:06;;;;;;;6.72;4.88;;;;;;;;;;4924230;28;20509;-71
2023/05/15 04:53:32;;;;;;;5.10;3.65;;;;;;;;;;4927870;28;20058;-70
2023/05/15 04:55:58;;;;;;;4.95;4.38;;;;;;;;;;4937595;28;20882;-70
2023/05/15 04:58:23;;;;;;;5.25;4.15;;;;;;;;;;4930324;28;20043;-71
2023/05/15 05:00:49;;;;;;;4.97;4.43;;;;;;;;;;4933586;28;20071;-71
2023/05/15 05:03:14;;;;;;;6.65;4.32;;;;;;;;;;4933150;28;20058;-70
2023/05/15 05:05:39;;;;;;;4.95;4.15;;;;;;;;;;4928786;28;20050;-67
2023/05/15 05:08:05;;;;;;;5.88;4.85;;;;;;;;;;4924119;28;20412;-68
2023/05/15 05:10:30;;;;;;;6.60;5.13;;;;;;;;;;4930033;28;20122;-68
2023/05/15 05:12:55;;;;;;;6.90;5.10;;;;;;;;;;4936625;28;20051;-68
2023/05/15 05:15:21;;;;;;;7.13;5.55;;;;;;;;;;4935747;28;20071;-70
2023/05/15 05:17:46;;;;;;;7.18;5.07;;;;;;;;;;4930813;28;20042;-69
2023/05/15 05:20:12;;;;;;;6.57;5.05;;;;;;;;;;4927063;23;20466;-64
2023/05/15 05:22:38;;;;;;;6.40;5.38;;;;;;;;;;4888261;28;20066;-65
2023/05/15 05:25:05;;;;;;;4.55;3.42;;;;;;;;;;4905200;28;20036;-67
2023/05/15 05:27:30;;;;;;;6.10;4.88;;;;;;;;;;4903342;29;20120;-68
2023/05/15 05:29:56;;;;;;;6.35;4.88;;;;;;;;;;4905264;28;20039;-66
2023/05/15 05:32:21;;;;;;;6.65;5.22;;;;;;;;;;4923341;28;20470;-67
2023/05/15 05:34:47;;;;;;;7.50;4.68;;;;;;;;;;4905573;28;20043;-67
2023/05/15 05:37:12;;;;;;;7.53;5.55;;;;;;;;;;4926571;28;20046;-67
2023/05/15 05:39:37;;;;;;;7.00;4.95;;;;;;;;;;4926462;28;20122;-69
2023/05/15 05:42:03;;;;;;;8.57;5.93;;;;;;;;;;4926731;28;20101;-66
2023/05/15 05:44:28;;;;;;;8.18;5.75;;;;;;;;;;4910420;28;20519;-67
2023/05/15 05:46:54;;;;;;;8.82;6.05;;;;;;;;;;4929648;28;20495;-66
2023/05/15 05:49:19;;;;;;;8.60;5.35;;;;;;;;;;4908465;28;20085;-67
2023/05/15 05:51:45;;;;;;;8.73;5.13;;;;;;;;;;4929586;28;20049;-66
2023/05/15 05:54:11;;;;;;;8.02;4.50;;;;;;;;;;4931566;28;20027;-67
2023/05/15 05:56:36;;;;;;;7.47;4.78;;;;;;;;;;4927514;28;20117;-67
2023/05/15 05:59:02;;;;;;;7.97;5.32;;;;;;;;;;4927782;28;20720;-68
2023/05/15 06:01:28;;;;;;;6.00;4.93;;;;;;;;;;4930373;28;20133;-67
2023/05/15 06:03:54;;;;;;;7.78;5.40;;;;;;;;;;4905110;28;20044;-67
2023/05/15 06:06:20;;;;;;;5.93;4.15;;;;;;;;;;4927008;28;20047;-68
2023/05/15 06:08:45;;;;;;;6.30;4.78;;;;;;;;;;4927429;28;20400;-67
2023/05/15 06:11:11;;;;;;;7.13;4.97;;;;;;;;;;4926548;28;20046;-68
2023/05/15 06:13:36;;;;;;;5.10;4.00;;;;;;;;;;4933239;28;20039;-68
2023/05/15 06:16:02;;;;;;;5.57;4.78;;;;;;;;;;4915034;28;20115;-67
2023/05/15 06:18:27;;;;;;;7.10;5.65;;;;;;;;;;4899626;28;20042;-68
2023/05/15 06:20:52;;;;;;;7.05;4.95;;;;;;;;;;4917024;28;20822;-68
2023/05/15 06:23:18;;;;;;;7.70;3.80;;;;;;;;;;4918757;28;20039;-68
2023/05/15 06:25:43;;;;;;;5.80;4.20;;;;;;;;;;4930811;28;20523;-67
2023/05/15 06:28:09;;;;;;;7.10;4.15;;;;;;;;;;4934101;28;20679;-66
2023/05/15 06:30:34;;;;;;;5.05;4.50;;;;;;;;;;4924281;28;20415;-67
2023/05/15 06:33:00;;;;;;;7.15;3.92;;;;;;;;;;4924648;28;20051;-67
2023/05/15 06:35:25;;;;;;;5.75;4.05;;;;;;;;;;4931799;28;20134;-67
2023/05/15 06:37:51;;;;;;;4.70;3.70;;;;;;;;;;4929498;28;20126;-67
2023/05/15 06:40:17;;;;;;;6.35;3.88;;;;;;;;;;4930461;28;20663;-67
2023/05/15 06:42:42;;;;;;;5.90;3.55;;;;;;;;;;4934204;28;20041;-67
2023/05/15 06:45:08;;;;;;;7.80;4.45;;;;;;;;;;4921307;28;20047;-67
2023/05/15 06:47:34;;;;;;;5.40;4.10;;;;;;;;;;4921804;28;20206;-67
2023/05/15 06:49:59;;;;;;;5.72;4.32;;;;;;;;;;4916058;28;20047;-67
2023/05/15 06:52:24;;;;;;;4.68;4.03;;;;;;;;;;4910554;28;20082;-66
2023/05/15 06:54:50;;;;;;;4.82;3.67;;;;;;;;;;4920394;28;20507;-68
2023/05/15 06:57:17;;;;;;;4.82;4.25;;;;;;;;;;4921075;28;20039;-67
2023/05/15 06:59:42;;;;;;;6.32;4.15;;;;;;;;;;4907683;28;20039;-67
2023/05/15 07:02:07;;;;;;;4.68;4.18;;;;;;;;;;4910812;28;20063;-68
2023/05/15 07:04:33;;;;;;;6.40;4.25;;;;;;;;;;4930880;28;20042;-67
2023/05/15 07:06:58;;;;;;;5.60;4.53;;;;;;;;;;4929365;28;20520;-66
2023/05/15 07:09:24;;;;;;;6.63;4.57;;;;;;;;;;4926775;28;20039;-66
2023/05/15 07:11:49;;;;;;;6.55;4.68;;;;;;;;;;4929123;28;20043;-67
2023/05/15 07:14:15;;;;;;;5.97;4.97;;;;;;;;;;4896265;28;20036;-67
2023/05/15 07:16:40;;;;;;;7.32;5.35;;;;;;;;;;4925724;28;20088;-67
2023/05/15 07:19:07;;;;;;;10.00;4.90;;;;;;;;;;4905066;28;20043;-66
2023/05/15 07:21:33;;;;;;;7.00;4.53;;;;;;;;;;4912243;28;20641;-67
2023/05/15 07:23:58;;;;;;;5.70;4.70;;;;;;;;;;4913022;28;20039;-67
2023/05/15 07:26:23;;;;;;;7.68;4.80;;;;;;;;;;4928420;28;20953;-67
2023/05/15 07:28:49;;;;;;;6.75;4.40;;;;;;;;;;4910056;28;20126;-66
2023/05/15 07:31:14;;;;;;;7.30;4.75;;;;;;;;;;4927452;28;20050;-67
2023/05/15 07:33:40;;;;;;;5.53;4.15;;;;;;;;;;4929501;28;20126;-67
2023/05/15 07:36:05;;;;;;;4.40;3.55;;;;;;;;;;4928724;28;20098;-67
2023/05/15 07:38:31;;;;;;;6.55;4.40;;;;;;;;;;4926688;28;20047;-67
2023/05/15 07:40:56;;;;;;;5.82;4.38;;;;;;;;;;4929755;28;20046;-66
2023/05/15 07:43:21;;;;;;;5.60;4.10;;;;;;;;;;4909087;28;20421;-67
2023/05/15 07:45:47;;;;;;;7.70;4.28;;;;;;;;;;4928291;28;20047;-67
2023/05/15 07:48:14;;;;;;;5.65;3.95;;;;;;;;;;4928307;28;20043;-68
2023/05/15 07:50:39;;;;;;;7.88;4.68;;;;;;;;;;4927887;28;20038;-67
2023/05/15 07:53:05;;;;;;;5.85;4.70;;;;;;;;;;4928740;28;20043;-68
2023/05/15 07:55:30;;;;;;;5.78;4.22;;;;;;;;;;4927705;28;20039;-68
2023/05/15 07:57:55;;;;;;;5.75;4.55;;;;;;;;;;4889644;28;20044;-66
2023/05/15 08:00:21;;;;;;;6.72;4.28;;;;;;;;;;4911724;28;20078;-67
2023/05/15 08:02:47;;;;;;;5.60;4.03;;;;;;;;;;4930662;28;20687;-67
2023/05/15 08:05:13;;;;;;;7.35;4.93;;;;;;;;;;4925712;28;20142;-67
2023/05/15 08:07:38;;;;;;;5.25;4.55;;;;;;;;;;4928402;28;20110;-68
2023/05/15 08:10:04;;;;;;;5.40;4.90;;;;;;;;;;4918723;28;20573;-67
2023/05/15 08:12:30;;;;;;;5.03;4.45;;;;;;;;;;4916683;28;20131;-67
2023/05/15 08:14:56;;;;;;;5.70;4.25;;;;;;;;;;4922397;28;20130;-67
2023/05/15 08:17:23;;;;;;;4.90;4.20;;;;;;;;;;4920079;28;20049;-67
2023/05/15 08:19:48;;;;;;;5.22;4.47;;;;;;;;;;4913597;29;20507;-67
2023/05/15 08:22:14;;;;;;;5.82;4.88;;;;;;;;;;4912247;28;20134;-66
2023/05/15 08:24:40;;;;;;;7.57;4.85;;;;;;;;;;4922451;28;20090;-67
2023/05/15 08:27:06;;;;;;;7.00;4.80;;;;;;;;;;4913794;28;20121;-66
2023/05/15 08:29:32;;;;;;;6.35;4.53;;;;;;;;;;4915159;28;20436;-67
2023/05/15 08:31:57;;;;;;;7.05;5.18;;;;;;;;;;4925107;28;20059;-67
2023/05/15 08:34:23;;;;;;;5.82;4.53;;;;;;;;;;4929018;28;20058;-67
2023/05/15 08:36:49;;;;;;;6.45;4.72;;;;;;;;;;4921929;28;20048;-67
2023/05/15 08:39:14;;;;;;;5.40;4.65;;;;;;;;;;4915342;28;20047;-66
2023/05/15 08:41:45;;;;;;;5.65;4.60;;;;;;;;;;4913049;28;20051;-68
2023/05/15 08:44:11;;;;;;;8.25;4.30;;;;;;;;;;4919109;28;20146;-68
2023/05/15 08:46:37;;;;;;;8.55;5.28;;;;;;;;;;4915817;28;20626;-68
2023/05/15 08:49:11;;;;;;;8.55;4.60;;;;;;;;;;4919806;28;20046;-67
2023/05/15 08:51:37;;;;;;;6.00;4.18;;;;;;;;;;4902254;28;20063;-66
2023/05/15 08:54:03;;;;;;;7.55;3.92;;;;;;;;;;4922117;28;20035;-67
2023/05/15 08:56:28;;;;;;;7.03;4.80;;;;;;;;;;4928707;28;20043;-67
2023/05/15 08:58:54;;;;;;;6.55;4.40;;;;;;;;;;4927943;28;20053;-67
2023/05/15 09:01:20;;;;;;;5.22;3.97;;;;;;;;;;4923986;28;20098;-67
2023/05/15 09:03:45;;;;;;;5.72;4.30;;;;;;;;;;4927547;28;20071;-66
2023/05/15 09:06:12;;;;;;;5.32;4.00;;;;;;;;;;4916475;28;20066;-68
2023/05/15 09:08:39;;;;;;;5.63;4.45;;;;;;;;;;4910573;28;20052;-67
2023/05/15 09:11:06;;;;;;;4.63;4.07;;;;;;;;;;4869888;29;20580;-67
2023/05/15 09:13:32;;;;;;;5.75;4.32;;;;;;;;;;4916323;28;20035;-67
2023/05/15 09:15:58;;;;;;;5.45;3.92;;;;;;;;;;4916457;28;20048;-67
2023/05/15 09:18:24;;;;;;;7.05;4.15;;;;;;;;;;4910950;28;20381;-68
2023/05/15 09:20:50;;;;;;;5.18;4.35;;;;;;;;;;4897935;28;20048;-68
2023/05/15 09:23:26;;;;;;;4.85;3.85;;;;;;;;;;4928230;28;20450;-67
2023/05/15 09:25:55;;;;;;;6.03;4.35;;;;;;;;;;4911347;29;20427;-67
2023/05/15 09:28:27;;;;;;;5.40;4.15;;;;;;;;;;4926903;28;20062;-67
2023/05/15 09:30:59;;;;;;;4.88;4.35;;;;;;;;;;4900278;28;20420;-68
2023/05/15 09:33:43;;;;;;;5.47;3.95;;;;;;;;;;4884880;28;20051;-67
2023/05/15 09:36:09;;;;;;;6.15;4.30;;;;;;;;;;4911172;28;20547;-68
2023/05/15 09:38:40;;;;;;;7.00;4.22;;;;;;;;;;4904867;29;20122;-67
2023/05/15 09:41:07;;;;;;;5.82;4.47;;;;;;;;;;4907395;28;20578;-67
2023/05/15 09:43:36;;;;;;;4.82;3.90;;;;;;;;;;4907796;28;20051;-67
2023/05/15 09:46:02;;;;;;;5.22;4.25;;;;;;;;;;4930527;28;20505;-68
2023/05/15 09:48:29;;;;;;;5.93;4.25;;;;;;;;;;4926406;28;20129;-67
2023/05/15 09:50:55;;;;;;;5.85;4.05;;;;;;;;;;4925388;28;20031;-67
2023/05/15 09:53:21;;;;;;;5.72;4.10;;;;;;;;;;4923059;28;20039;-67
2023/05/15 09:55:47;;;;;;;4.75;4.22;;;;;;;;;;4923577;28;20047;-67
2023/05/15 09:58:15;;;;;;;5.57;4.05;;;;;;;;;;4917496;28;20588;-67
2023/05/15 10:00:42;;;;;;;5.82;3.83;;;;;;;;;;4917513;28;20051;-66
2023/05/15 10:03:08;;;;;;;8.23;4.85;;;;;;;;;;4927272;28;20539;-67
2023/05/15 10:05:34;;;;;;;5.30;4.60;;;;;;;;;;4910114;28;20133;-67
2023/05/15 10:08:01;;;;;;;5.05;3.90;;;;;;;;;;4932150;28;20039;-68
2023/05/15 10:10:28;;;;;;;4.25;3.78;;;;;;;;;;4903073;28;20182;-68
2023/05/15 10:12:54;;;;;;;4.70;4.03;;;;;;;;;;4914100;28;20039;-66
2023/05/15 10:15:21;;;;;;;5.53;4.38;;;;;;;;;;4932171;28;20039;-68
2023/05/15 10:17:48;;;;;;;5.97;4.15;;;;;;;;;;4931920;28;20039;-68
2023/05/15 10:20:16;;;;;;;5.00;4.07;;;;;;;;;;4919399;28;20039;-67
2023/05/15 10:22:49;;;;;;;5.40;4.22;;;;;;;;;;4907787;28;20538;-68
2023/05/15 10:25:32;;;;;;;6.35;4.38;;;;;;;;;;4922956;28;20044;-68
2023/05/15 10:27:59;;;;;;;5.90;4.10;;;;;;;;;;4923745;28;20067;-68
2023/05/15 10:30:25;;;;;;;5.15;3.90;;;;;;;;;;4916986;28;20046;-68
2023/05/15 10:32:51;;;;;;;4.70;3.90;;;;;;;;;;4929641;28;20530;-69
2023/05/15 10:35:17;;;;;;;7.88;4.20;;;;;;;;;;4915390;28;20043;-68
2023/05/15 10:37:47;;;;;;;8.63;5.10;;;;;;;;;;4929254;28;20065;-68
2023/05/15 10:40:14;;;;;;;6.15;4.00;;;;;;;;;;4934381;28;20046;-68
2023/05/15 10:42:41;;;;;;;5.00;4.47;;;;;;;;;;4932777;28;20032;-68
2023/05/15 10:45:08;;;;;;;5.70;4.20;;;;;;;;;;4922125;28;20107;-68
2023/05/15 10:47:35;;;;;;;4.47;3.85;;;;;;;;;;4905256;28;20133;-68
2023/05/15 10:50:03;;;;;;;7.50;4.18;;;;;;;;;;4914534;28;20067;-68
2023/05/15 10:52:30;;;;;;;6.40;4.47;;;;;;;;;;4926634;28;20091;-68
2023/05/15 10:54:56;;;;;;;6.05;3.97;;;;;;;;;;4923503;28;20548;-68
2023/05/15 10:57:22;;;;;;;6.10;4.70;;;;;;;;;;4932642;28;20074;-68
2023/05/15 10:59:47;;;;;;;7.03;4.18;;;;;;;;;;4933387;28;20039;-68
2023/05/15 11:02:23;;;;;;;5.57;4.38;;;;;;;;;;4903089;28;20130;-67
2023/05/15 11:05:00;;;;;;;6.35;4.05;;;;;;;;;;4931486;28;20126;-68
2023/05/15 11:07:26;;;;;;;5.55;4.07;;;;;;;;;;4930150;28;20158;-67
2023/05/15 11:09:52;;;;;;;5.28;4.05;;;;;;;;;;4920122;28;20162;-69
2023/05/15 11:12:18;;;;;;;6.07;3.30;;;;;;;;;;4925463;28;20043;-68
2023/05/15 11:15:11;;;;;;;6.00;3.60;;;;;;;;;;4919296;28;20040;-68
2023/05/15 11:17:36;;;;;;;7.03;3.55;;;;;;;;;;4903574;28;20053;-68
2023/05/15 11:20:04;;;;;;;7.47;4.05;;;;;;;;;;4900929;29;20636;-68
2023/05/15 11:22:31;;;;;;;5.80;3.90;;;;;;;;;;4907334;29;20074;-68
2023/05/15 11:25:03;;;;;;;6.50;4.45;;;;;;;;;;4905926;28;20046;-67
2023/05/15 11:27:30;;;;;;;4.28;3.83;;;;;;;;;;4901604;28;20447;-68
2023/05/15 11:30:04;;;;;;;4.90;4.05;;;;;;;;;;4906653;28;20047;-68
2023/05/15 11:32:50;;;;;;;4.47;3.85;;;;;;;;;;4923253;28;20157;-68
2023/05/15 11:35:27;;;;;;;5.22;3.80;;;;;;;;;;4909851;28;20050;-68
2023/05/15 11:37:57;;;;;;;5.65;4.25;;;;;;;;;;4926643;28;20058;-68
2023/05/15 11:40:27;;;;;;;8.35;4.20;;;;;;;;;;4916340;28;20039;-68
2023/05/15 11:43:09;;;;;;;6.38;4.32;;;;;;;;;;4910850;28;20072;-68
2023/05/15 11:45:39;;;;;;;6.70;3.70;;;;;;;;;;4921761;28;20459;-68
2023/05/15 11:48:06;;;;;;;7.53;4.22;;;;;;;;;;4899966;28;20382;-68
2023/05/15 11:50:33;;;;;;;5.43;3.97;;;;;;;;;;4917252;28;20033;-68
2023/05/15 11:53:06;;;;;;;7.03;3.92;;;;;;;;;;4920942;28;20059;-68
2023/05/15 11:55:33;;;;;;;5.80;3.88;;;;;;;;;;4921702;28;20047;-68
2023/05/15 11:57:59;;;;;;;5.07;4.13;;;;;;;;;;4926516;28;20043;-67
2023/05/15 12:00:25;;;;;;;4.70;4.10;;;;;;;;;;4918381;28;20046;-67
2023/05/15 12:02:51;;;;;;;4.30;3.72;;;;;;;;;;4925908;28;20035;-68
2023/05/15 12:05:16;;;;;;;4.63;4.10;;;;;;;;;;4916835;28;20042;-69
2023/05/15 12:07:43;;;;;;;4.82;3.83;;;;;;;;;;4919417;28;20043;-68
2023/05/15 12:10:10;;;;;;;4.80;4.00;;;;;;;;;;4918100;28;20118;-67
2023/05/15 12:12:38;;;;;;;6.15;3.90;;;;;;;;;;4926253;28;20070;-68
2023/05/15 12:15:04;;;;;;;4.93;3.70;;;;;;;;;;4905116;28;20064;-67
2023/05/15 12:17:31;;;;;;;8.40;3.60;;;;;;;;;;4911264;28;20384;-67
2023/05/15 12:19:58;;;;;;;5.03;3.60;;;;;;;;;;4901486;28;20863;-67
2023/05/15 12:22:23;;;;;;;4.95;3.70;;;;;;;;;;4911517;28;20054;-68
2023/05/15 12:24:49;;;;;;;8.50;4.10;;;;;;;;;;4928752;28;20043;-68
2023/05/15 12:27:15;;;;;;;5.03;3.72;;;;;;;;;;4916986;28;20660;-68
2023/05/15 12:29:41;;;;;;;5.78;3.63;;;;;;;;;;4927269;28;20050;-68
2023/05/15 12:32:08;;;;;;;3.92;3.20;;;;;;;;;;4918737;28;20047;-67
2023/05/15 12:34:34;;;;;;;4.25;3.28;;;;;;;;;;4929909;28;20451;-67
2023/05/15 12:36:59;;;;;;;6.55;3.80;;;;;;;;;;4925507;28;20040;-68
2023/05/15 12:39:25;;;;;;;4.15;3.33;;;;;;;;;;4922137;28;20617;-67
2023/05/15 12:41:53;;;;;;;5.03;3.40;;;;;;;;;;4917243;28;20122;-67
2023/05/15 12:44:19;;;;;;;4.38;3.60;;;;;;;;;;4928794;28;20055;-68
2023/05/15 12:46:45;;;;;;;5.20;3.50;;;;;;;;;;4917086;28;20155;-68
2023/05/15 12:49:11;;;;;;;5.60;3.03;;;;;;;;;;4927500;28;20035;-68
2023/05/15 12:51:43;;;;;;;5.72;3.10;;;;;;;;;;4925604;28;20573;-68
2023/05/15 12:54:18;;;;;;;3.58;2.47;;;;;;;;;;4916178;28;20078;-68
2023/05/15 12:56:45;;;;;;;4.53;2.80;;;;;;;;;;4926582;28;20042;-68
2023/05/15 12:59:11;;;;;;;3.97;2.65;;;;;;;;;;4915436;28;20048;-68
2023/05/15 13:01:36;;;;;;;5.38;3.53;;;;;;;;;;4926813;28;20090;-69
2023/05/15 13:04:02;;;;;;;5.22;3.50;;;;;;;;;;4928286;28;20059;-68
2023/05/15 13:06:28;;;;;;;6.53;4.00;;;;;;;;;;4927115;28;20047;-68
2023/05/15 13:08:54;;;;;;;4.88;3.78;;;;;;;;;;4917262;28;20050;-68
2023/05/15 13:11:19;;;;;;;5.20;3.55;;;;;;;;;;4902858;28;20452;-68
2023/05/15 13:13:48;;;;;;;5.85;3.35;;;;;;;;;;4926803;28;20047;-67
2023/05/15 13:16:25;;;;;;;3.70;3.20;;;;;;;;;;4928277;28;20066;-68
2023/05/15 13:18:51;;;;;;;6.95;3.10;;;;;;;;;;4926948;28;20486;-68
2023/05/15 13:21:18;;;;;;;4.55;3.50;;;;;;;;;;4916873;28;20049;-67
2023/05/15 13:23:43;;;;;;;4.85;3.00;;;;;;;;;;4914928;28;20443;-68
2023/05/15 13:26:09;;;;;;;6.70;3.28;;;;;;;;;;4913130;28;20043;-67
2023/05/15 13:28:34;;;;;;;5.70;3.47;;;;;;;;;;4925848;28;20094;-68
2023/05/15 13:31:00;;;;;;;5.45;3.92;;;;;;;;;;4913595;28;20044;-66
2023/05/15 13:33:25;;;;;;;4.18;3.28;;;;;;;;;;4907775;28;20047;-69
2023/05/15 13:35:51;;;;;;;5.60;3.20;;;;;;;;;;4890307;28;20051;-68
2023/05/15 13:38:17;;;;;;;6.05;3.50;;;;;;;;;;4902869;28;20036;-66
2023/05/15 13:40:42;;;;;;;5.55;3.63;;;;;;;;;;4920505;28;20051;-68
2023/05/15 13:43:07;;;;;;;4.57;3.28;;;;;;;;;;4922052;28;20115;-67
2023/05/15 13:45:33;;;;;;;5.20;3.28;;;;;;;;;;4916208;28;20059;-67
2023/05/15 13:47:58;;;;;;;5.38;3.30;;;;;;;;;;4895871;29;20509;-66
2023/05/15 13:50:24;;;;;;;4.63;3.20;;;;;;;;;;4889438;28;20142;-67
2023/05/15 13:52:49;;;;;;;5.75;3.50;;;;;;;;;;4915122;28;20110;-68
2023/05/15 13:55:15;;;;;;;5.45;3.42;;;;;;;;;;4926394;28;20035;-68
2023/05/15 13:57:41;;;;;;;5.45;3.72;;;;;;;;;;4925743;28;20097;-66
2023/05/15 14:00:11;;;;;;;5.43;3.42;;;;;;;;;;4921817;28;20032;-69
2023/05/15 14:02:38;;;;;;;4.03;3.25;;;;;;;;;;4897113;28;20138;-67
2023/05/15 14:05:04;;;;;;;6.22;4.05;;;;;;;;;;4925534;28;20035;-68
2023/05/15 14:07:30;;;;;;;4.50;3.17;;;;;;;;;;4903210;28;20527;-67
2023/05/15 14:09:56;;;;;;;5.25;3.20;;;;;;;;;;4910810;28;20504;-69
2023/05/15 14:12:21;;;;;;;5.25;3.85;;;;;;;;;;4926588;28;20039;-67
2023/05/15 14:14:47;;;;;;;7.28;3.00;;;;;;;;;;4926500;28;20043;-67
2023/05/15 14:17:13;;;;;;;4.65;3.88;;;;;;;;;;4915117;28;20115;-68
2023/05/15 14:19:39;;;;;;;4.88;3.17;;;;;;;;;;4911089;28;20055;-67
2023/05/15 14:22:05;;;;;;;4.18;3.08;;;;;;;;;;4917294;28;20146;-68
2023/05/15 14:24:30;;;;;;;6.68;4.03;;;;;;;;;;4909719;29;20477;-68
2023/05/15 14:26:56;;;;;;;6.10;3.97;;;;;;;;;;4926665;28;20031;-68
2023/05/15 14:29:21;;;;;;;5.50;3.50;;;;;;;;;;4927200;28;20049;-69
2023/05/15 14:31:47;;;;;;;5.78;4.25;;;;;;;;;;4915485;28;20451;-69
2023/05/15 14:34:12;;;;;;;4.88;4.00;;;;;;;;;;4901124;28;20035;-68
2023/05/15 14:36:37;;;;;;;4.47;3.78;;;;;;;;;;4925871;28;20039;-67
2023/05/15 14:39:03;;;;;;;9.18;4.32;;;;;;;;;;4922492;28;20134;-68
2023/05/15 14:41:28;;;;;;;5.53;3.78;;;;;;;;;;4919811;28;20035;-69